sensor_id;sensor_type;location;lat;lon;timestamp;temperature;humidity
21167;DHT22;10741;52.272;9.580;2023-08-17T00:00:15;19.00;99.90
21167;DHT22;10741;52.272;9.580;2023-08-17T00:02:43;19.00;99.90
21167;DHT22;10741;52.272;9.580;2023-08-17T00:05:09;19.00;99.90
21167;DHT22;10741;52.272;9.580;2023-08-17T00:07:35;19.00;99.90
21167;DHT22;10741;52.272;9.580;2023-08-17T00:10:02;19.00;99.90
21167;DHT22;10741;52.272;9.580;2023-08-17T00:12:28;18.90;99.90
21167;DHT22;10741;52.272;9.580;2023-08-17T00:14:54;18.90;99.90
21167;DHT22;10741;52.272;9.580;2023-08-17T00:17:20;18.80;99.90
21167;DHT22;10741;52.272;9.580;2023-08-17T00:19:46;18.80;99.90
21167;DHT22;10741;52.272;9.580;2023-08-17T00:22:12;18.80;99.90
21167;DHT22;10741;52.272;9.580;2023-08-17T00:24:38;18.70;99.90
21167;DHT22;10741;52.272;9.580;2023-08-17T00:27:06;18.70;99.90
21167;DHT22;10741;52.272;9.580;2023-08-17T00:29:32;18.70;99.90
21167;DHT22;10741;52.272;9.580;2023-08-17T00:31:57;18.60;99.90
21167;DHT22;10741;52.272;9.580;2023-08-17T00:34:23;18.60;99.90
21167;DHT22;10741;52.272;9.580;2023-08-17T00:36:49;18.60;99.90
21167;DHT22;10741;52.272;9.580;2023-08-17T00:39:15;18.60;99.90
21167;DHT22;10741;52.272;9.580;2023-08-17T00:41:41;18.50;99.90
21167;DHT22;10741;52.272;9.580;2023-08-17T00:44:06;18.50;99.90
21167;DHT22;10741;52.272;9.580;2023-08-17T00:46:32;18.50;99.90
21167;DHT22;10741;52.272;9.580;2023-08-17T00:48:58;18.40;99.90
21167;DHT22;10741;52.272;9.580;2023-08-17T00:51:25;18.40;99.90
21167;DHT22;10741;52.272;9.580;2023-08-17T00:53:52;18.40;99.90
21167;DHT22;10741;52.272;9.580;2023-08-17T00:56:21;18.30;99.90
21167;DHT22;10741;52.272;9.580;2023-08-17T00:58:47;18.30;99.90
21167;DHT22;10741;52.272;9.580;2023-08-17T01:01:14;18.30;99.90
21167;DHT22;10741;52.272;9.580;2023-08-17T01:03:40;18.20;99.90
21167;DHT22;10741;52.272;9.580;2023-08-17T01:06:09;18.20;99.90
21167;DHT22;10741;52.272;9.580;2023-08-17T01:08:36;18.20;99.90
21167;DHT22;10741;52.272;9.580;2023-08-17T01:14:01;18.10;99.90
21167;DHT22;10741;52.272;9.580;2023-08-17T01:16:33;18.00;99.90
21167;DHT22;10741;52.272;9.580;2023-08-17T01:19:00;18.00;99.90
21167;DHT22;10741;52.272;9.580;2023-08-17T01:21:40;18.00;99.90
21167;DHT22;10741;52.272;9.580;2023-08-17T01:24:08;18.00;99.90
21167;DHT22;10741;52.272;9.580;2023-08-17T01:26:33;18.00;99.90
21167;DHT22;10741;52.272;9.580;2023-08-17T01:29:00;18.00;99.90
21167;DHT22;10741;52.272;9.580;2023-08-17T01:31:54;17.90;99.90
21167;DHT22;10741;52.272;9.580;2023-08-17T01:34:25;17.90;99.90
21167;DHT22;10741;52.272;9.580;2023-08-17T01:36:56;17.90;99.90
21167;DHT22;10741;52.272;9.580;2023-08-17T01:39:31;17.90;99.90
21167;DHT22;10741;52.272;9.580;2023-08-17T01:41:58;17.90;99.90
21167;DHT22;10741;52.272;9.580;2023-08-17T01:44:25;17.80;99.90
21167;DHT22;10741;52.272;9.580;2023-08-17T01:46:53;17.90;99.90
21167;DHT22;10741;52.272;9.580;2023-08-17T01:49:18;17.90;99.90
21167;DHT22;10741;52.272;9.580;2023-08-17T01:51:44;17.80;99.90
21167;DHT22;10741;52.272;9.580;2023-08-17T01:54:10;17.80;99.90
21167;DHT22;10741;52.272;9.580;2023-08-17T01:56:36;17.90;99.90
21167;DHT22;10741;52.272;9.580;2023-08-17T01:59:01;17.80;99.90
21167;DHT22;10741;52.272;9.580;2023-08-17T02:01:27;17.80;99.90
21167;DHT22;10741;52.272;9.580;2023-08-17T02:03:53;17.80;99.90
21167;DHT22;10741;52.272;9.580;2023-08-17T02:06:19;17.70;99.90
21167;DHT22;10741;52.272;9.580;2023-08-17T02:08:45;17.80;99.90
21167;DHT22;10741;52.272;9.580;2023-08-17T02:11:11;17.80;99.90
21167;DHT22;10741;52.272;9.580;2023-08-17T02:13:36;17.70;99.90
21167;DHT22;10741;52.272;9.580;2023-08-17T02:16:06;17.70;99.90
21167;DHT22;10741;52.272;9.580;2023-08-17T02:18:32;17.70;99.90
21167;DHT22;10741;52.272;9.580;2023-08-17T02:21:00;17.70;99.90
21167;DHT22;10741;52.272;9.580;2023-08-17T02:23:25;17.70;99.90
21167;DHT22;10741;52.272;9.580;2023-08-17T02:25:51;17.70;99.90
21167;DHT22;10741;52.272;9.580;2023-08-17T02:28:17;17.70;99.90
21167;DHT22;10741;52.272;9.580;2023-08-17T02:30:43;17.70;99.90
21167;DHT22;10741;52.272;9.580;2023-08-17T02:33:09;17.60;99.90
21167;DHT22;10741;52.272;9.580;2023-08-17T02:35:35;17.70;99.90
21167;DHT22;10741;52.272;9.580;2023-08-17T02:38:00;17.60;99.90
21167;DHT22;10741;52.272;9.580;2023-08-17T02:40:26;17.60;99.90
21167;DHT22;10741;52.272;9.580;2023-08-17T02:42:52;17.60;99.90
21167;DHT22;10741;52.272;9.580;2023-08-17T02:45:18;17.60;99.90
21167;DHT22;10741;52.272;9.580;2023-08-17T02:47:43;17.60;99.90
21167;DHT22;10741;52.272;9.580;2023-08-17T02:50:10;17.60;99.90
21167;DHT22;10741;52.272;9.580;2023-08-17T02:52:35;17.70;99.90
21167;DHT22;10741;52.272;9.580;2023-08-17T02:55:01;17.60;99.90
21167;DHT22;10741;52.272;9.580;2023-08-17T02:57:27;17.70;99.90
21167;DHT22;10741;52.272;9.580;2023-08-17T02:59:53;17.70;99.90
21167;DHT22;10741;52.272;9.580;2023-08-17T03:02:18;17.70;99.90
21167;DHT22;10741;52.272;9.580;2023-08-17T03:04:44;17.70;99.90
21167;DHT22;10741;52.272;9.580;2023-08-17T03:07:10;17.60;99.90
21167;DHT22;10741;52.272;9.580;2023-08-17T03:09:35;17.70;99.90
21167;DHT22;10741;52.272;9.580;2023-08-17T03:12:01;17.60;99.90
21167;DHT22;10741;52.272;9.580;2023-08-17T03:14:27;17.60;99.90
21167;DHT22;10741;52.272;9.580;2023-08-17T03:16:53;17.60;99.90
21167;DHT22;10741;52.272;9.580;2023-08-17T03:19:18;17.50;99.90
21167;DHT22;10741;52.272;9.580;2023-08-17T03:21:44;17.50;99.90
21167;DHT22;10741;52.272;9.580;2023-08-17T03:24:10;17.50;99.90
21167;DHT22;10741;52.272;9.580;2023-08-17T03:26:36;17.50;99.90
21167;DHT22;10741;52.272;9.580;2023-08-17T03:29:01;17.60;99.90
21167;DHT22;10741;52.272;9.580;2023-08-17T03:31:27;17.50;99.90
21167;DHT22;10741;52.272;9.580;2023-08-17T03:33:53;17.60;99.90
21167;DHT22;10741;52.272;9.580;2023-08-17T03:36:20;17.60;99.90
21167;DHT22;10741;52.272;9.580;2023-08-17T03:38:46;17.60;99.90
21167;DHT22;10741;52.272;9.580;2023-08-17T03:41:12;17.60;99.90
21167;DHT22;10741;52.272;9.580;2023-08-17T03:43:37;17.60;99.90
21167;DHT22;10741;52.272;9.580;2023-08-17T03:46:04;17.60;99.90
21167;DHT22;10741;52.272;9.580;2023-08-17T03:48:31;17.60;99.90
21167;DHT22;10741;52.272;9.580;2023-08-17T03:50:57;17.60;99.90
21167;DHT22;10741;52.272;9.580;2023-08-17T03:53:22;17.60;99.90
21167;DHT22;10741;52.272;9.580;2023-08-17T03:55:49;17.70;99.90
21167;DHT22;10741;52.272;9.580;2023-08-17T03:58:15;17.60;99.90
21167;DHT22;10741;52.272;9.580;2023-08-17T04:00:41;17.70;99.90
21167;DHT22;10741;52.272;9.580;2023-08-17T04:03:08;17.70;99.90
21167;DHT22;10741;52.272;9.580;2023-08-17T04:05:33;17.70;99.90
21167;DHT22;10741;52.272;9.580;2023-08-17T04:08:00;17.70;99.90
21167;DHT22;10741;52.272;9.580;2023-08-17T04:10:28;17.70;99.90
21167;DHT22;10741;52.272;9.580;2023-08-17T04:12:55;17.70;99.90
21167;DHT22;10741;52.272;9.580;2023-08-17T04:15:21;17.80;99.90
21167;DHT22;10741;52.272;9.580;2023-08-17T04:17:47;17.70;99.90
21167;DHT22;10741;52.272;9.580;2023-08-17T04:20:12;17.70;99.90
21167;DHT22;10741;52.272;9.580;2023-08-17T04:22:38;17.70;99.90
21167;DHT22;10741;52.272;9.580;2023-08-17T04:25:04;17.70;99.90
21167;DHT22;10741;52.272;9.580;2023-08-17T04:27:30;17.80;99.90
21167;DHT22;10741;52.272;9.580;2023-08-17T04:29:57;17.80;99.90
21167;DHT22;10741;52.272;9.580;2023-08-17T04:32:22;17.80;99.90
21167;DHT22;10741;52.272;9.580;2023-08-17T04:34:48;17.80;99.90
21167;DHT22;10741;52.272;9.580;2023-08-17T04:37:15;17.80;99.90
21167;DHT22;10741;52.272;9.580;2023-08-17T04:39:40;17.80;99.90
21167;DHT22;10741;52.272;9.580;2023-08-17T04:42:08;17.90;99.90
21167;DHT22;10741;52.272;9.580;2023-08-17T04:44:34;17.80;99.90
21167;DHT22;10741;52.272;9.580;2023-08-17T04:47:00;17.90;99.90
21167;DHT22;10741;52.272;9.580;2023-08-17T04:49:26;17.90;99.90
21167;DHT22;10741;52.272;9.580;2023-08-17T04:51:52;17.90;99.90
21167;DHT22;10741;52.272;9.580;2023-08-17T04:54:18;17.90;99.90
21167;DHT22;10741;52.272;9.580;2023-08-17T04:56:44;17.90;99.90
21167;DHT22;10741;52.272;9.580;2023-08-17T04:59:10;17.90;99.90
21167;DHT22;10741;52.272;9.580;2023-08-17T05:01:36;17.90;99.90
21167;DHT22;10741;52.272;9.580;2023-08-17T05:04:03;17.80;99.90
21167;DHT22;10741;52.272;9.580;2023-08-17T05:06:29;17.90;99.90
21167;DHT22;10741;52.272;9.580;2023-08-17T05:08:55;17.90;99.90
21167;DHT22;10741;52.272;9.580;2023-08-17T05:11:20;17.90;99.90
21167;DHT22;10741;52.272;9.580;2023-08-17T05:13:46;17.90;99.90
21167;DHT22;10741;52.272;9.580;2023-08-17T05:16:12;17.90;99.90
21167;DHT22;10741;52.272;9.580;2023-08-17T05:18:38;17.90;99.90
21167;DHT22;10741;52.272;9.580;2023-08-17T05:21:04;17.90;99.90
21167;DHT22;10741;52.272;9.580;2023-08-17T05:23:29;17.90;99.90
21167;DHT22;10741;52.272;9.580;2023-08-17T05:25:55;17.90;99.90
21167;DHT22;10741;52.272;9.580;2023-08-17T05:28:21;17.90;99.90
21167;DHT22;10741;52.272;9.580;2023-08-17T05:30:48;17.90;99.90
21167;DHT22;10741;52.272;9.580;2023-08-17T05:33:14;17.90;99.90
21167;DHT22;10741;52.272;9.580;2023-08-17T05:35:39;17.90;99.90
21167;DHT22;10741;52.272;9.580;2023-08-17T05:38:05;17.90;99.90
21167;DHT22;10741;52.272;9.580;2023-08-17T05:40:32;17.90;99.90
21167;DHT22;10741;52.272;9.580;2023-08-17T05:42:58;18.00;99.90
21167;DHT22;10741;52.272;9.580;2023-08-17T05:45:23;18.00;99.90
21167;DHT22;10741;52.272;9.580;2023-08-17T05:47:49;18.00;99.90
21167;DHT22;10741;52.272;9.580;2023-08-17T05:50:15;18.00;99.90
21167;DHT22;10741;52.272;9.580;2023-08-17T05:52:41;18.00;99.90
21167;DHT22;10741;52.272;9.580;2023-08-17T05:55:07;18.00;99.90
21167;DHT22;10741;52.272;9.580;2023-08-17T05:57:33;18.00;99.90
21167;DHT22;10741;52.272;9.580;2023-08-17T05:59:58;18.00;99.90
21167;DHT22;10741;52.272;9.580;2023-08-17T06:02:24;18.00;99.90
21167;DHT22;10741;52.272;9.580;2023-08-17T06:04:50;18.10;99.90
21167;DHT22;10741;52.272;9.580;2023-08-17T06:07:16;18.10;99.90
21167;DHT22;10741;52.272;9.580;2023-08-17T06:09:42;18.10;99.90
21167;DHT22;10741;52.272;9.580;2023-08-17T06:12:07;18.10;99.90
21167;DHT22;10741;52.272;9.580;2023-08-17T06:14:33;18.10;99.90
21167;DHT22;10741;52.272;9.580;2023-08-17T06:16:59;18.00;99.90
21167;DHT22;10741;52.272;9.580;2023-08-17T06:19:25;18.10;99.90
21167;DHT22;10741;52.272;9.580;2023-08-17T06:21:51;18.10;99.90
21167;DHT22;10741;52.272;9.580;2023-08-17T06:24:17;18.10;99.90
21167;DHT22;10741;52.272;9.580;2023-08-17T06:26:44;18.10;99.90
21167;DHT22;10741;52.272;9.580;2023-08-17T06:29:11;18.10;99.90
21167;DHT22;10741;52.272;9.580;2023-08-17T06:31:37;18.10;99.90
21167;DHT22;10741;52.272;9.580;2023-08-17T06:34:03;18.10;99.90
21167;DHT22;10741;52.272;9.580;2023-08-17T06:36:32;18.10;99.90
21167;DHT22;10741;52.272;9.580;2023-08-17T06:38:59;18.10;99.90
21167;DHT22;10741;52.272;9.580;2023-08-17T06:41:25;18.10;99.90
21167;DHT22;10741;52.272;9.580;2023-08-17T06:43:51;18.10;99.90
21167;DHT22;10741;52.272;9.580;2023-08-17T06:46:17;18.10;99.90
21167;DHT22;10741;52.272;9.580;2023-08-17T06:48:43;18.00;99.90
21167;DHT22;10741;52.272;9.580;2023-08-17T06:51:09;18.00;99.90
21167;DHT22;10741;52.272;9.580;2023-08-17T06:53:34;18.00;99.90
21167;DHT22;10741;52.272;9.580;2023-08-17T06:56:00;18.00;99.90
21167;DHT22;10741;52.272;9.580;2023-08-17T06:58:26;18.00;99.90
21167;DHT22;10741;52.272;9.580;2023-08-17T07:00:52;18.00;99.90
21167;DHT22;10741;52.272;9.580;2023-08-17T07:03:18;18.10;99.90
21167;DHT22;10741;52.272;9.580;2023-08-17T07:05:44;18.10;99.90
21167;DHT22;10741;52.272;9.580;2023-08-17T07:08:10;18.10;99.90
21167;DHT22;10741;52.272;9.580;2023-08-17T07:10:35;18.00;99.90
21167;DHT22;10741;52.272;9.580;2023-08-17T07:13:01;18.00;99.90
21167;DHT22;10741;52.272;9.580;2023-08-17T07:15:29;18.10;99.90
21167;DHT22;10741;52.272;9.580;2023-08-17T07:17:55;18.10;99.90
21167;DHT22;10741;52.272;9.580;2023-08-17T07:20:21;18.10;99.90
21167;DHT22;10741;52.272;9.580;2023-08-17T07:22:47;18.10;99.90
21167;DHT22;10741;52.272;9.580;2023-08-17T07:25:13;18.10;99.90
21167;DHT22;10741;52.272;9.580;2023-08-17T07:27:39;18.20;99.90
21167;DHT22;10741;52.272;9.580;2023-08-17T07:30:05;18.10;99.90
21167;DHT22;10741;52.272;9.580;2023-08-17T07:32:31;18.10;99.90
21167;DHT22;10741;52.272;9.580;2023-08-17T07:34:57;18.10;99.90
21167;DHT22;10741;52.272;9.580;2023-08-17T07:37:22;18.00;99.90
21167;DHT22;10741;52.272;9.580;2023-08-17T07:39:48;18.10;99.90
21167;DHT22;10741;52.272;9.580;2023-08-17T07:42:14;18.10;99.90
21167;DHT22;10741;52.272;9.580;2023-08-17T07:44:40;18.20;99.90
21167;DHT22;10741;52.272;9.580;2023-08-17T07:47:06;18.20;99.90
21167;DHT22;10741;52.272;9.580;2023-08-17T07:49:31;18.20;99.90
21167;DHT22;10741;52.272;9.580;2023-08-17T07:51:57;18.20;99.90
21167;DHT22;10741;52.272;9.580;2023-08-17T07:54:23;18.30;99.90
21167;DHT22;10741;52.272;9.580;2023-08-17T07:56:49;18.20;99.90
21167;DHT22;10741;52.272;9.580;2023-08-17T07:59:14;18.30;99.90
21167;DHT22;10741;52.272;9.580;2023-08-17T08:01:40;18.40;99.90
21167;DHT22;10741;52.272;9.580;2023-08-17T08:04:07;18.30;99.90
21167;DHT22;10741;52.272;9.580;2023-08-17T08:06:33;18.40;99.90
21167;DHT22;10741;52.272;9.580;2023-08-17T08:08:59;18.40;99.90
21167;DHT22;10741;52.272;9.580;2023-08-17T08:11:25;18.40;99.90
21167;DHT22;10741;52.272;9.580;2023-08-17T08:13:53;18.40;99.90
21167;DHT22;10741;52.272;9.580;2023-08-17T08:16:18;18.50;99.90
21167;DHT22;10741;52.272;9.580;2023-08-17T08:18:44;18.40;99.90
21167;DHT22;10741;52.272;9.580;2023-08-17T08:21:10;18.40;99.90
21167;DHT22;10741;52.272;9.580;2023-08-17T08:23:36;18.50;99.90
21167;DHT22;10741;52.272;9.580;2023-08-17T08:26:02;18.40;99.90
21167;DHT22;10741;52.272;9.580;2023-08-17T08:28:27;18.40;99.90
21167;DHT22;10741;52.272;9.580;2023-08-17T08:30:53;18.40;99.90
21167;DHT22;10741;52.272;9.580;2023-08-17T08:33:19;18.50;99.90
21167;DHT22;10741;52.272;9.580;2023-08-17T08:35:45;18.50;99.90
21167;DHT22;10741;52.272;9.580;2023-08-17T08:38:11;18.50;99.90
21167;DHT22;10741;52.272;9.580;2023-08-17T08:40:37;18.50;99.90
21167;DHT22;10741;52.272;9.580;2023-08-17T08:43:06;18.60;99.90
21167;DHT22;10741;52.272;9.580;2023-08-17T08:45:36;18.70;99.90
21167;DHT22;10741;52.272;9.580;2023-08-17T08:48:02;18.60;99.90
21167;DHT22;10741;52.272;9.580;2023-08-17T08:50:31;18.70;99.90
21167;DHT22;10741;52.272;9.580;2023-08-17T08:53:01;18.70;99.90
21167;DHT22;10741;52.272;9.580;2023-08-17T08:55:34;18.70;99.90
21167;DHT22;10741;52.272;9.580;2023-08-17T08:58:04;18.70;99.90
21167;DHT22;10741;52.272;9.580;2023-08-17T09:00:30;18.60;99.90
21167;DHT22;10741;52.272;9.580;2023-08-17T09:02:56;18.70;99.90
21167;DHT22;10741;52.272;9.580;2023-08-17T09:05:23;18.60;99.90
21167;DHT22;10741;52.272;9.580;2023-08-17T09:07:49;18.60;99.90
21167;DHT22;10741;52.272;9.580;2023-08-17T09:10:16;18.60;99.90
21167;DHT22;10741;52.272;9.580;2023-08-17T09:12:45;18.60;99.90
21167;DHT22;10741;52.272;9.580;2023-08-17T09:15:11;18.50;99.90
21167;DHT22;10741;52.272;9.580;2023-08-17T09:17:37;18.60;99.90
21167;DHT22;10741;52.272;9.580;2023-08-17T09:20:03;18.60;99.90
21167;DHT22;10741;52.272;9.580;2023-08-17T09:22:43;18.60;99.90
21167;DHT22;10741;52.272;9.580;2023-08-17T09:25:10;18.60;99.90
21167;DHT22;10741;52.272;9.580;2023-08-17T09:27:37;18.60;99.90
21167;DHT22;10741;52.272;9.580;2023-08-17T09:30:08;18.60;99.90
21167;DHT22;10741;52.272;9.580;2023-08-17T09:32:35;18.50;99.90
21167;DHT22;10741;52.272;9.580;2023-08-17T09:35:05;18.60;99.90
21167;DHT22;10741;52.272;9.580;2023-08-17T09:37:33;18.60;99.90
21167;DHT22;10741;52.272;9.580;2023-08-17T09:40:00;18.60;99.90
21167;DHT22;10741;52.272;9.580;2023-08-17T09:42:26;18.60;99.90
21167;DHT22;10741;52.272;9.580;2023-08-17T09:44:53;18.60;99.90
21167;DHT22;10741;52.272;9.580;2023-08-17T09:47:22;18.60;99.90
21167;DHT22;10741;52.272;9.580;2023-08-17T09:49:55;18.70;99.90
21167;DHT22;10741;52.272;9.580;2023-08-17T09:52:24;18.70;99.90
21167;DHT22;10741;52.272;9.580;2023-08-17T09:54:51;18.60;99.90
21167;DHT22;10741;52.272;9.580;2023-08-17T09:57:17;18.60;99.90
21167;DHT22;10741;52.272;9.580;2023-08-17T09:59:43;18.70;99.90
21167;DHT22;10741;52.272;9.580;2023-08-17T10:02:22;18.70;99.90
21167;DHT22;10741;52.272;9.580;2023-08-17T10:04:53;18.70;99.90
21167;DHT22;10741;52.272;9.580;2023-08-17T10:07:20;18.70;99.90
21167;DHT22;10741;52.272;9.580;2023-08-17T10:09:53;18.60;99.90
21167;DHT22;10741;52.272;9.580;2023-08-17T10:12:25;18.60;99.90
21167;DHT22;10741;52.272;9.580;2023-08-17T10:14:59;18.70;99.90
21167;DHT22;10741;52.272;9.580;2023-08-17T10:17:27;18.80;99.90
21167;DHT22;10741;52.272;9.580;2023-08-17T10:19:58;18.70;99.90
21167;DHT22;10741;52.272;9.580;2023-08-17T10:22:36;18.80;99.90
21167;DHT22;10741;52.272;9.580;2023-08-17T10:25:09;18.80;99.90
21167;DHT22;10741;52.272;9.580;2023-08-17T10:27:37;18.70;99.90
21167;DHT22;10741;52.272;9.580;2023-08-17T10:30:04;18.70;99.90
21167;DHT22;10741;52.272;9.580;2023-08-17T10:32:31;18.60;99.90
21167;DHT22;10741;52.272;9.580;2023-08-17T10:34:57;18.70;99.90
21167;DHT22;10741;52.272;9.580;2023-08-17T10:37:24;18.60;99.90
21167;DHT22;10741;52.272;9.580;2023-08-17T10:39:50;18.60;99.90
21167;DHT22;10741;52.272;9.580;2023-08-17T10:42:33;18.50;99.90
21167;DHT22;10741;52.272;9.580;2023-08-17T10:44:59;18.60;99.90
21167;DHT22;10741;52.272;9.580;2023-08-17T10:47:31;18.50;99.90
21167;DHT22;10741;52.272;9.580;2023-08-17T10:50:05;18.40;99.90
21167;DHT22;10741;52.272;9.580;2023-08-17T10:52:36;18.30;99.90
21167;DHT22;10741;52.272;9.580;2023-08-17T10:55:08;18.20;99.90
21167;DHT22;10741;52.272;9.580;2023-08-17T10:57:36;18.20;99.90
21167;DHT22;10741;52.272;9.580;2023-08-17T11:00:18;18.20;99.90
21167;DHT22;10741;52.272;9.580;2023-08-17T11:03:00;18.20;99.90
21167;DHT22;10741;52.272;9.580;2023-08-17T11:05:42;18.20;99.90
21167;DHT22;10741;52.272;9.580;2023-08-17T11:08:11;18.10;99.90
21167;DHT22;10741;52.272;9.580;2023-08-17T11:11:06;18.10;99.90
21167;DHT22;10741;52.272;9.580;2023-08-17T11:13:34;18.10;99.90
21167;DHT22;10741;52.272;9.580;2023-08-17T11:16:01;18.10;99.90
21167;DHT22;10741;52.272;9.580;2023-08-17T11:18:27;18.00;99.90
21167;DHT22;10741;52.272;9.580;2023-08-17T11:20:55;18.00;99.90
21167;DHT22;10741;52.272;9.580;2023-08-17T11:23:23;18.10;99.90
21167;DHT22;10741;52.272;9.580;2023-08-17T11:25:49;18.00;99.90
21167;DHT22;10741;52.272;9.580;2023-08-17T11:28:16;18.00;99.90
21167;DHT22;10741;52.272;9.580;2023-08-17T11:30:43;18.00;99.90
21167;DHT22;10741;52.272;9.580;2023-08-17T11:33:09;18.00;99.90
21167;DHT22;10741;52.272;9.580;2023-08-17T11:35:38;18.00;99.90
21167;DHT22;10741;52.272;9.580;2023-08-17T11:38:05;18.00;99.90
21167;DHT22;10741;52.272;9.580;2023-08-17T11:40:31;17.90;99.90
21167;DHT22;10741;52.272;9.580;2023-08-17T11:42:58;17.90;99.90
21167;DHT22;10741;52.272;9.580;2023-08-17T11:45:24;18.00;99.90
21167;DHT22;10741;52.272;9.580;2023-08-17T11:47:49;17.90;99.90
21167;DHT22;10741;52.272;9.580;2023-08-17T11:50:16;18.00;99.90
21167;DHT22;10741;52.272;9.580;2023-08-17T11:52:43;18.00;99.90
21167;DHT22;10741;52.272;9.580;2023-08-17T11:55:09;17.80;99.90
21167;DHT22;10741;52.272;9.580;2023-08-17T11:57:37;17.90;99.90
21167;DHT22;10741;52.272;9.580;2023-08-17T12:00:05;17.80;99.90
21167;DHT22;10741;52.272;9.580;2023-08-17T12:02:38;17.80;99.90
21167;DHT22;10741;52.272;9.580;2023-08-17T12:05:08;17.80;99.90
21167;DHT22;10741;52.272;9.580;2023-08-17T12:07:35;17.20;99.90
21167;DHT22;10741;52.272;9.580;2023-08-17T12:10:03;17.80;99.90
21167;DHT22;10741;52.272;9.580;2023-08-17T12:12:29;17.80;99.90
21167;DHT22;10741;52.272;9.580;2023-08-17T12:14:57;17.80;99.90
21167;DHT22;10741;52.272;9.580;2023-08-17T12:17:23;17.70;99.90
21167;DHT22;10741;52.272;9.580;2023-08-17T12:19:53;17.70;99.90
21167;DHT22;10741;52.272;9.580;2023-08-17T12:22:19;17.60;99.90
21167;DHT22;10741;52.272;9.580;2023-08-17T12:24:48;17.60;99.90
21167;DHT22;10741;52.272;9.580;2023-08-17T12:27:14;17.60;99.90
21167;DHT22;10741;52.272;9.580;2023-08-17T12:29:50;17.60;99.90
21167;DHT22;10741;52.272;9.580;2023-08-17T12:32:18;17.60;99.90
21167;DHT22;10741;52.272;9.580;2023-08-17T12:34:44;17.40;99.90
21167;DHT22;10741;52.272;9.580;2023-08-17T12:37:10;17.50;99.90
21167;DHT22;10741;52.272;9.580;2023-08-17T12:39:37;17.60;99.90
21167;DHT22;10741;52.272;9.580;2023-08-17T12:42:06;17.60;99.90
21167;DHT22;10741;52.272;9.580;2023-08-17T12:44:32;17.50;99.90
21167;DHT22;10741;52.272;9.580;2023-08-17T12:46:58;17.60;99.90
21167;DHT22;10741;52.272;9.580;2023-08-17T12:49:24;17.70;99.90
21167;DHT22;10741;52.272;9.580;2023-08-17T12:51:50;17.60;99.90
21167;DHT22;10741;52.272;9.580;2023-08-17T12:54:16;17.60;99.90
21167;DHT22;10741;52.272;9.580;2023-08-17T12:56:42;17.60;99.90
21167;DHT22;10741;52.272;9.580;2023-08-17T12:59:07;17.70;99.90
21167;DHT22;10741;52.272;9.580;2023-08-17T13:01:33;17.70;99.90
21167;DHT22;10741;52.272;9.580;2023-08-17T13:03:59;17.80;99.90
21167;DHT22;10741;52.272;9.580;2023-08-17T13:06:25;17.80;99.90
21167;DHT22;10741;52.272;9.580;2023-08-17T13:08:50;17.80;99.90
21167;DHT22;10741;52.272;9.580;2023-08-17T13:11:16;17.70;99.90
21167;DHT22;10741;52.272;9.580;2023-08-17T13:13:42;17.70;99.90
21167;DHT22;10741;52.272;9.580;2023-08-17T13:16:08;17.70;99.90
21167;DHT22;10741;52.272;9.580;2023-08-17T13:18:36;17.70;99.90
21167;DHT22;10741;52.272;9.580;2023-08-17T13:21:02;17.60;99.90
21167;DHT22;10741;52.272;9.580;2023-08-17T13:23:28;17.60;99.90
21167;DHT22;10741;52.272;9.580;2023-08-17T13:25:53;17.60;99.90
21167;DHT22;10741;52.272;9.580;2023-08-17T13:28:19;17.60;99.90
21167;DHT22;10741;52.272;9.580;2023-08-17T13:30:45;17.60;99.90
21167;DHT22;10741;52.272;9.580;2023-08-17T13:33:11;17.60;99.90
21167;DHT22;10741;52.272;9.580;2023-08-17T13:35:38;17.60;99.90
21167;DHT22;10741;52.272;9.580;2023-08-17T13:38:04;17.60;99.90
21167;DHT22;10741;52.272;9.580;2023-08-17T13:40:33;17.60;99.90
21167;DHT22;10741;52.272;9.580;2023-08-17T13:42:59;17.70;99.90
21167;DHT22;10741;52.272;9.580;2023-08-17T13:45:26;17.70;99.90
21167;DHT22;10741;52.272;9.580;2023-08-17T13:47:52;17.70;99.90
21167;DHT22;10741;52.272;9.580;2023-08-17T13:50:18;17.70;99.90
21167;DHT22;10741;52.272;9.580;2023-08-17T13:52:44;17.80;99.90
21167;DHT22;10741;52.272;9.580;2023-08-17T13:55:10;17.80;99.90
21167;DHT22;10741;52.272;9.580;2023-08-17T13:57:36;17.80;99.90
21167;DHT22;10741;52.272;9.580;2023-08-17T14:00:03;17.80;99.90
21167;DHT22;10741;52.272;9.580;2023-08-17T14:02:29;17.70;99.90
21167;DHT22;10741;52.272;9.580;2023-08-17T14:04:55;17.70;99.90
21167;DHT22;10741;52.272;9.580;2023-08-17T14:07:21;17.70;99.90
21167;DHT22;10741;52.272;9.580;2023-08-17T14:09:47;17.70;99.90
21167;DHT22;10741;52.272;9.580;2023-08-17T14:12:12;17.70;99.90
21167;DHT22;10741;52.272;9.580;2023-08-17T14:14:38;17.70;99.90
21167;DHT22;10741;52.272;9.580;2023-08-17T14:17:04;17.70;99.90
21167;DHT22;10741;52.272;9.580;2023-08-17T14:19:30;17.70;99.90
21167;DHT22;10741;52.272;9.580;2023-08-17T14:21:56;17.70;99.90
21167;DHT22;10741;52.272;9.580;2023-08-17T14:24:22;17.70;99.90
21167;DHT22;10741;52.272;9.580;2023-08-17T14:26:47;17.70;99.90
21167;DHT22;10741;52.272;9.580;2023-08-17T14:29:14;17.70;99.90
21167;DHT22;10741;52.272;9.580;2023-08-17T14:31:39;17.60;99.90
21167;DHT22;10741;52.272;9.580;2023-08-17T14:34:05;17.60;99.90
21167;DHT22;10741;52.272;9.580;2023-08-17T14:36:31;17.60;99.90
21167;DHT22;10741;52.272;9.580;2023-08-17T14:38:56;17.70;99.90
21167;DHT22;10741;52.272;9.580;2023-08-17T14:41:22;17.70;99.90
21167;DHT22;10741;52.272;9.580;2023-08-17T14:43:48;17.80;99.90
21167;DHT22;10741;52.272;9.580;2023-08-17T14:46:13;17.80;99.90
21167;DHT22;10741;52.272;9.580;2023-08-17T14:48:39;17.80;99.90
21167;DHT22;10741;52.272;9.580;2023-08-17T14:51:05;17.80;99.90
21167;DHT22;10741;52.272;9.580;2023-08-17T14:53:31;17.70;99.90
21167;DHT22;10741;52.272;9.580;2023-08-17T14:55:56;17.70;99.90
21167;DHT22;10741;52.272;9.580;2023-08-17T14:58:22;17.70;99.90
21167;DHT22;10741;52.272;9.580;2023-08-17T15:00:48;17.70;99.90
21167;DHT22;10741;52.272;9.580;2023-08-17T15:03:14;17.70;99.90
21167;DHT22;10741;52.272;9.580;2023-08-17T15:05:39;17.70;99.90
21167;DHT22;10741;52.272;9.580;2023-08-17T15:08:05;17.80;99.90
21167;DHT22;10741;52.272;9.580;2023-08-17T15:10:32;17.80;99.90
21167;DHT22;10741;52.272;9.580;2023-08-17T15:12:59;17.70;99.90
21167;DHT22;10741;52.272;9.580;2023-08-17T15:15:24;17.70;99.90
21167;DHT22;10741;52.272;9.580;2023-08-17T15:17:50;17.70;99.90
21167;DHT22;10741;52.272;9.580;2023-08-17T15:20:16;17.70;99.90
21167;DHT22;10741;52.272;9.580;2023-08-17T15:22:42;17.70;99.90
21167;DHT22;10741;52.272;9.580;2023-08-17T15:25:07;17.70;99.90
21167;DHT22;10741;52.272;9.580;2023-08-17T15:27:33;17.70;99.90
21167;DHT22;10741;52.272;9.580;2023-08-17T15:29:59;17.70;99.90